Terminal Aerodrome Forecast
Issued by NWS Grand Forks, ND

Home | Current Version | Previous Version | Text Only | Print | Product List | Glossary On
Versions: 1 2 3 4 5 6 7 8 9 10 11 12 13 14 15
148
FTUS43 KFGF 231720
TAFFAR
TAF
KFAR 231720Z 2318/2418 36007KT P6SM OVC030
     FM231900 36007KT P6SM BKN045
     FM232200 03007KT P6SM SCT200
     FM240300 VRB05KT P6SM FEW200
     FM241600 16012G18KT P6SM FEW200=

USA.gov is the U.S. government's official web portal to all federal, state and local government web resources and services.